createdAt,value
2022-09-05T00:00:19.395Z,2.10
2022-09-05T00:02:01.912Z,2.30
2022-09-05T00:03:28.717Z,2.00
2022-09-05T00:04:52.259Z,2.20
2022-09-05T00:06:13.741Z,2.07
2022-09-05T00:07:57.712Z,2.23
2022-09-05T00:09:21.315Z,2.30
2022-09-05T00:11:41.178Z,2.03
2022-09-05T00:12:23.959Z,2.00
2022-09-05T00:13:35.882Z,2.17
2022-09-05T00:15:30.024Z,2.20
2022-09-05T00:17:04.887Z,2.20
2022-09-05T00:22:23.776Z,2.37
2022-09-05T00:23:21.503Z,2.07
2022-09-05T00:24:29.710Z,2.20
2022-09-05T00:24:34.606Z,2.33
2022-09-05T00:25:21.345Z,1.93
2022-09-05T00:26:50.620Z,2.20
2022-09-05T00:28:25.936Z,2.00
2022-09-05T00:31:05.997Z,1.90
2022-09-05T00:32:03.795Z,1.90
2022-09-05T00:33:23.711Z,2.00
2022-09-05T00:35:14.189Z,2.33
2022-09-05T00:36:45.377Z,2.30
2022-09-05T00:37:50.697Z,2.60
2022-09-05T00:39:04.797Z,2.57
2022-09-05T00:40:42.368Z,2.60
2022-09-05T00:41:52.055Z,2.50
2022-09-05T00:42:59.838Z,2.50
2022-09-05T00:44:03.795Z,2.40
2022-09-05T00:45:19.373Z,2.60
2022-09-05T00:46:31.870Z,2.20
2022-09-05T00:47:58.264Z,2.10
2022-09-05T00:49:29.757Z,2.00
2022-09-05T00:51:07.821Z,1.93
2022-09-05T00:52:31.130Z,1.87
2022-09-05T00:54:08.368Z,1.93
2022-09-05T00:55:24.938Z,2.13
2022-09-05T00:56:54.080Z,2.00
2022-09-05T00:58:28.019Z,1.70
2022-09-05T01:00:17.812Z,1.80
2022-09-05T01:01:42.140Z,1.60
2022-09-05T01:03:31.638Z,2.00
2022-09-05T01:05:06.946Z,1.97
2022-09-05T01:06:20.504Z,1.57
2022-09-05T01:07:50.019Z,1.50
2022-09-05T01:09:34.620Z,1.60
2022-09-05T01:10:57.701Z,1.70
2022-09-05T01:12:31.767Z,1.60
2022-09-05T01:14:00.089Z,1.60
2022-09-05T01:15:34.788Z,1.97
2022-09-05T01:17:01.650Z,1.80
2022-09-05T01:18:38.906Z,2.00
2022-09-05T01:20:19.458Z,2.07
2022-09-05T01:22:05.437Z,1.83
2022-09-05T01:23:22.004Z,1.80
2022-09-05T01:24:55.660Z,1.87
2022-09-05T01:26:27.744Z,1.83
2022-09-05T01:28:05.442Z,1.90
2022-09-05T01:29:20.052Z,2.20
2022-09-05T01:30:57.916Z,1.70
2022-09-05T01:32:46.400Z,1.87
2022-09-05T01:34:22.883Z,1.90
2022-09-05T01:36:04.675Z,1.90
2022-09-05T01:37:31.261Z,1.93
2022-09-05T01:40:11.607Z,2.00
2022-09-05T01:41:21.471Z,1.97
2022-09-05T01:42:45.568Z,2.00
2022-09-05T01:44:26.239Z,2.07
2022-09-05T01:45:52.621Z,2.17
2022-09-05T01:47:30.988Z,2.03
2022-09-05T01:48:56.755Z,2.23
2022-09-05T01:50:11.911Z,2.00
2022-09-05T01:51:37.019Z,1.80
2022-09-05T01:53:10.335Z,2.00
2022-09-05T01:54:54.109Z,1.90
2022-09-05T01:56:26.889Z,1.70
2022-09-05T01:58:08.717Z,1.87
2022-09-05T01:59:33.682Z,2.57
2022-09-05T02:01:42.170Z,1.73
2022-09-05T02:03:38.949Z,1.93
2022-09-05T02:05:20.625Z,2.00
2022-09-05T02:06:38.175Z,2.20
2022-09-05T02:07:58.712Z,1.80
2022-09-05T02:10:11.798Z,1.93
2022-09-05T02:11:16.230Z,1.70
2022-09-05T02:13:02.350Z,1.93
2022-09-05T02:14:35.712Z,1.83
2022-09-05T02:15:59.312Z,1.80
2022-09-05T02:17:50.897Z,1.80
2022-09-05T02:19:10.913Z,2.13
2022-09-05T02:20:28.888Z,1.80
2022-09-05T02:21:56.153Z,1.80
2022-09-05T02:23:30.994Z,1.90
2022-09-05T02:24:49.241Z,1.80
2022-09-05T02:26:23.109Z,1.90
2022-09-05T02:28:12.862Z,2.27
2022-09-05T02:29:36.651Z,1.80
2022-09-05T02:31:18.729Z,1.63
2022-09-05T02:32:43.026Z,1.57
2022-09-05T02:34:07.042Z,1.80
2022-09-05T02:35:13.787Z,1.93
2022-09-05T02:36:32.891Z,1.93
2022-09-05T02:41:20.201Z,1.87
2022-09-05T02:44:20.619Z,1.80
2022-09-05T02:45:13.048Z,1.70
2022-09-05T02:45:24.407Z,2.03
2022-09-05T02:45:47.140Z,1.90
2022-09-05T02:47:22.404Z,1.70
2022-09-05T02:48:39.125Z,1.93
2022-09-05T02:55:05.710Z,1.80
2022-09-05T02:57:26.122Z,1.70
2022-09-05T02:57:33.578Z,1.67
2022-09-05T02:57:41.943Z,1.60
2022-09-05T02:57:46.688Z,1.90
2022-09-05T02:58:06.118Z,1.80
2022-09-05T02:59:53.822Z,2.10
2022-09-05T03:01:16.222Z,1.70
2022-09-05T03:02:51.798Z,2.13
2022-09-05T03:04:11.045Z,1.70
2022-09-05T03:05:56.793Z,2.00
2022-09-05T03:07:42.067Z,1.70
2022-09-05T03:09:35.470Z,2.37
2022-09-05T03:11:14.533Z,1.83
2022-09-05T03:12:46.949Z,1.70
2022-09-05T03:14:19.531Z,2.13
2022-09-05T03:15:49.030Z,1.83
2022-09-05T03:17:18.410Z,1.80
2022-09-05T03:19:06.878Z,2.20
2022-09-05T03:20:50.327Z,2.00
2022-09-05T03:22:09.857Z,1.80
2022-09-05T03:24:08.072Z,2.40
2022-09-05T03:25:49.168Z,2.10
2022-09-05T03:27:29.175Z,1.60
2022-09-05T03:29:18.711Z,1.83
2022-09-05T03:30:24.918Z,2.10
2022-09-05T03:32:03.975Z,2.13
2022-09-05T03:33:46.277Z,2.23
2022-09-05T03:35:24.796Z,2.27
2022-09-05T03:37:00.451Z,2.00
2022-09-05T03:38:51.594Z,1.90
2022-09-05T03:40:22.855Z,1.80
2022-09-05T03:41:40.564Z,1.87
2022-09-05T03:43:40.177Z,2.00
2022-09-05T03:45:11.486Z,2.03
2022-09-05T03:46:15.979Z,2.10
2022-09-05T03:47:38.700Z,1.77
2022-09-05T03:49:04.160Z,1.90
2022-09-05T03:57:04.286Z,1.70
2022-09-05T03:57:11.565Z,1.70
2022-09-05T03:57:19.887Z,1.80
2022-09-05T03:57:27.198Z,1.93
2022-09-05T03:59:13.815Z,2.00
2022-09-05T04:00:20.984Z,2.10
2022-09-05T04:04:31.770Z,2.30
2022-09-05T04:08:08.729Z,2.17
2022-09-05T04:08:17.618Z,2.20
2022-09-05T04:08:28.338Z,2.17
2022-09-05T04:08:47.262Z,1.90
2022-09-05T04:09:58.751Z,2.03
2022-09-05T04:11:35.625Z,1.83
2022-09-05T04:12:57.676Z,1.80
2022-09-05T04:14:11.408Z,1.87
2022-09-05T04:15:38.722Z,2.00
2022-09-05T04:16:57.109Z,2.00
2022-09-05T04:18:11.640Z,2.27
2022-09-05T04:19:35.063Z,2.20
2022-09-05T04:20:47.816Z,2.23
2022-09-05T04:22:31.264Z,2.60
2022-09-05T04:24:07.959Z,2.30
2022-09-05T04:25:34.160Z,1.87
2022-09-05T04:27:05.490Z,2.27
2022-09-05T04:28:22.272Z,1.83
2022-09-05T04:29:48.973Z,1.90
2022-09-05T04:31:45.247Z,2.20
2022-09-05T04:33:36.400Z,2.00
2022-09-05T04:35:18.477Z,2.07
2022-09-05T04:36:33.016Z,1.90
2022-09-05T04:37:51.840Z,1.97
2022-09-05T04:39:27.134Z,1.70
2022-09-05T04:41:05.711Z,2.07
2022-09-05T04:42:44.156Z,2.00
2022-09-05T04:43:56.685Z,1.87
2022-09-05T04:45:17.864Z,1.90
2022-09-05T04:46:49.171Z,1.97
2022-09-05T04:47:55.412Z,1.90
2022-09-05T04:49:49.578Z,1.97
2022-09-05T04:51:31.915Z,2.00
2022-09-05T04:53:33.313Z,2.10
2022-09-05T04:54:53.918Z,1.87
2022-09-05T04:55:57.894Z,2.20
2022-09-05T04:57:34.767Z,1.90
2022-09-05T05:00:33.797Z,2.23
2022-09-05T05:06:05.242Z,2.20
2022-09-05T05:06:12.053Z,2.30
2022-09-05T05:06:14.283Z,2.47
2022-09-05T05:06:18.132Z,2.30
2022-09-05T05:06:46.913Z,2.53
2022-09-05T05:08:01.118Z,2.13
2022-09-05T05:09:31.516Z,1.93
2022-09-05T05:14:44.443Z,1.93
2022-09-05T05:17:55.479Z,2.23
2022-09-05T05:18:01.367Z,2.20
2022-09-05T05:18:08.138Z,2.03
2022-09-05T05:18:14.371Z,2.30
2022-09-05T05:19:18.828Z,2.27
2022-09-05T05:20:44.368Z,2.37
2022-09-05T05:21:53.451Z,2.50
2022-09-05T05:23:16.331Z,2.30
2022-09-05T05:24:29.723Z,2.60
2022-09-05T05:25:51.557Z,2.40
2022-09-05T05:27:09.118Z,2.57
2022-09-05T05:28:25.004Z,2.40
2022-09-05T05:29:43.701Z,2.47
2022-09-05T05:30:45.701Z,2.70
2022-09-05T05:31:58.591Z,3.10
2022-09-05T05:33:17.959Z,2.47
2022-09-05T05:34:24.224Z,2.10
2022-09-05T05:35:44.571Z,2.30
2022-09-05T05:37:08.858Z,2.17
2022-09-05T05:38:43.786Z,2.17
2022-09-05T05:40:11.871Z,2.13
2022-09-05T05:41:26.924Z,2.00
2022-09-05T05:42:28.759Z,2.33
2022-09-05T05:43:46.296Z,2.40
2022-09-05T05:44:55.457Z,1.90
2022-09-05T05:46:00.304Z,2.17
2022-09-05T05:47:32.000Z,2.20
2022-09-05T05:48:39.660Z,2.30
2022-09-05T05:50:11.333Z,2.30
2022-09-05T05:52:01.386Z,2.30
2022-09-05T05:53:51.763Z,2.53
2022-09-05T05:55:52.195Z,2.43
2022-09-05T05:57:45.084Z,2.20
2022-09-05T05:59:25.042Z,2.13
2022-09-05T06:00:29.967Z,2.43
2022-09-05T06:01:37.786Z,2.50
2022-09-05T06:03:26.457Z,2.70
2022-09-05T06:05:09.749Z,2.50
2022-09-05T06:06:22.992Z,2.17
2022-09-05T06:11:52.997Z,2.17
2022-09-05T06:14:51.621Z,2.00
2022-09-05T06:14:59.828Z,2.00
2022-09-05T06:15:00.159Z,2.10
2022-09-05T06:15:52.188Z,2.10
2022-09-05T06:17:53.594Z,2.00
2022-09-05T06:20:00.250Z,2.30
2022-09-05T06:22:10.884Z,2.30
2022-09-05T06:23:38.615Z,2.17
2022-09-05T06:25:34.820Z,2.07
2022-09-05T06:27:00.884Z,2.00
2022-09-05T06:28:27.679Z,1.93
2022-09-05T06:30:09.492Z,2.17
2022-09-05T06:31:29.870Z,2.20
2022-09-05T06:33:16.629Z,2.33
2022-09-05T06:34:56.046Z,2.03
2022-09-05T06:36:20.360Z,2.47
2022-09-05T06:38:12.713Z,2.20
2022-09-05T06:40:02.044Z,2.07
2022-09-05T06:41:26.023Z,2.10
2022-09-05T06:42:53.758Z,2.57
2022-09-05T06:44:20.053Z,2.10
2022-09-05T06:45:58.846Z,2.27
2022-09-05T06:47:23.964Z,2.20
2022-09-05T06:49:30.643Z,2.00
2022-09-05T06:51:08.352Z,2.20
2022-09-05T06:52:32.123Z,2.07
2022-09-05T06:54:28.954Z,2.37
2022-09-05T06:56:11.602Z,2.53
2022-09-05T06:58:04.284Z,2.40
2022-09-05T06:59:34.182Z,2.20
2022-09-05T07:00:49.087Z,2.77
2022-09-05T07:02:15.204Z,2.57
2022-09-05T07:05:14.693Z,2.47
2022-09-05T07:07:00.922Z,2.13
2022-09-05T07:08:44.318Z,2.40
2022-09-05T07:10:16.624Z,2.70
2022-09-05T07:12:07.810Z,2.73
2022-09-05T07:13:44.445Z,2.60
2022-09-05T07:15:35.092Z,2.80
2022-09-05T07:17:09.188Z,2.40
2022-09-05T07:18:26.629Z,2.43
2022-09-05T07:19:35.346Z,2.77
2022-09-05T07:21:17.909Z,2.47
2022-09-05T07:22:49.927Z,2.63
2022-09-05T07:24:08.927Z,2.70
2022-09-05T07:25:18.892Z,2.83
2022-09-05T07:26:51.819Z,2.60
2022-09-05T07:28:29.487Z,2.27
2022-09-05T07:29:27.755Z,2.40
2022-09-05T07:30:31.885Z,2.40
2022-09-05T07:31:38.575Z,2.60
2022-09-05T07:32:50.668Z,2.17
2022-09-05T07:34:20.624Z,2.23
2022-09-05T07:35:41.943Z,2.10
2022-09-05T07:36:49.915Z,2.53
2022-09-05T07:38:49.012Z,2.30
2022-09-05T07:40:09.514Z,2.00
2022-09-05T07:41:32.979Z,2.10
2022-09-05T07:43:09.359Z,2.10
2022-09-05T07:44:37.607Z,2.30
2022-09-05T07:45:56.014Z,2.20
2022-09-05T07:47:16.779Z,1.80
2022-09-05T07:48:34.175Z,2.00
2022-09-05T07:49:57.979Z,2.30
2022-09-05T07:56:49.624Z,1.90
2022-09-05T07:56:56.380Z,2.00
2022-09-05T07:57:05.167Z,2.03
2022-09-05T07:57:15.784Z,2.30
2022-09-05T07:58:50.380Z,2.20
2022-09-05T08:00:05.157Z,2.13
2022-09-05T08:01:12.626Z,2.00
2022-09-05T08:02:14.852Z,2.07
2022-09-05T08:03:17.867Z,2.10
2022-09-05T08:04:33.478Z,1.83
2022-09-05T08:05:49.702Z,1.97
2022-09-05T08:07:47.674Z,1.77
2022-09-05T08:08:30.734Z,1.90
2022-09-05T08:10:06.795Z,3.17
2022-09-05T08:11:25.510Z,2.07
2022-09-05T08:13:22.745Z,2.00
2022-09-05T08:14:44.103Z,1.63
2022-09-05T08:16:00.727Z,1.50
2022-09-05T08:17:00.157Z,1.70
2022-09-05T08:18:42.871Z,1.50
2022-09-05T08:20:35.624Z,1.80
2022-09-05T08:21:46.161Z,1.50
2022-09-05T08:23:03.599Z,1.57
2022-09-05T08:24:23.732Z,1.57
2022-09-05T08:25:42.874Z,1.93
2022-09-05T08:27:10.136Z,1.70
2022-09-05T08:28:38.994Z,1.80
2022-09-05T08:30:08.712Z,1.60
2022-09-05T08:31:38.589Z,1.77
2022-09-05T08:33:10.985Z,1.90
2022-09-05T08:34:24.760Z,1.70
2022-09-05T08:35:59.315Z,1.63
2022-09-05T08:37:05.228Z,1.60
2022-09-05T08:38:08.996Z,1.50
2022-09-05T08:39:15.166Z,1.77
2022-09-05T08:40:29.898Z,1.47
2022-09-05T08:42:06.994Z,1.63
2022-09-05T08:45:22.787Z,1.50
2022-09-05T08:46:47.176Z,1.47
2022-09-05T08:46:52.862Z,1.50
2022-09-05T08:48:38.698Z,1.57
2022-09-05T08:50:05.706Z,1.50
2022-09-05T08:51:54.487Z,1.63
2022-09-05T08:53:32.912Z,1.50
2022-09-05T08:55:46.874Z,1.50
2022-09-05T08:57:07.910Z,1.40
2022-09-05T08:59:28.500Z,1.77
2022-09-05T09:00:24.574Z,1.40
2022-09-05T09:02:45.307Z,1.40
2022-09-05T09:04:06.700Z,1.37
2022-09-05T09:06:12.682Z,1.30
2022-09-05T09:07:47.604Z,1.40
2022-09-05T09:09:12.079Z,1.50
2022-09-05T09:10:48.982Z,1.27
2022-09-05T09:12:14.425Z,1.33
2022-09-05T09:13:30.672Z,1.50
2022-09-05T09:15:00.214Z,1.38
2022-09-05T09:16:14.747Z,1.70
2022-09-05T09:17:46.593Z,1.33
2022-09-05T09:18:48.314Z,1.58
2022-09-05T09:20:17.929Z,1.45
2022-09-05T09:21:51.899Z,1.30
2022-09-05T09:23:02.549Z,1.40
2022-09-05T09:24:30.389Z,1.77
2022-09-05T09:25:48.253Z,1.30
2022-09-05T09:27:05.180Z,1.42
2022-09-05T09:28:49.775Z,1.40
2022-09-05T09:29:58.957Z,1.45
2022-09-05T09:31:35.965Z,1.67
2022-09-05T09:32:48.089Z,1.63
2022-09-05T09:34:26.871Z,1.45
2022-09-05T09:36:06.153Z,1.58
2022-09-05T09:37:50.451Z,1.60
2022-09-05T09:39:39.572Z,1.70
2022-09-05T09:40:56.810Z,1.67
2022-09-05T09:42:37.912Z,1.38
2022-09-05T09:44:07.714Z,1.52
2022-09-05T09:45:38.763Z,1.80
2022-09-05T09:46:50.650Z,1.90
2022-09-05T09:48:33.992Z,1.42
2022-09-05T09:50:13.860Z,1.50
2022-09-05T09:51:35.757Z,1.27
2022-09-05T09:53:12.981Z,1.70
2022-09-05T09:55:21.331Z,1.25
2022-09-05T09:57:00.652Z,1.52
2022-09-05T09:58:42.798Z,1.58
2022-09-05T10:00:18.013Z,1.52
2022-09-05T10:01:38.342Z,1.63
2022-09-05T10:06:54.086Z,1.42
2022-09-05T10:10:36.283Z,1.33
2022-09-05T10:10:48.190Z,1.65
2022-09-05T10:10:54.223Z,1.30
2022-09-05T10:10:55.283Z,1.40
2022-09-05T10:12:53.212Z,1.67
2022-09-05T10:15:00.345Z,1.20
2022-09-05T10:16:27.077Z,1.58
2022-09-05T10:18:06.759Z,1.58
2022-09-05T10:22:33.891Z,1.50
2022-09-05T10:23:55.968Z,1.10
2022-09-05T10:25:40.398Z,1.30
2022-09-05T10:27:22.031Z,1.50
2022-09-05T10:29:11.802Z,1.70
2022-09-05T10:33:33.865Z,1.90
2022-09-05T10:35:08.851Z,2.30
2022-09-05T10:35:12.999Z,1.40
2022-09-05T10:36:25.027Z,1.42
2022-09-05T10:38:00.745Z,1.83
2022-09-05T10:39:25.605Z,1.38
2022-09-05T10:40:36.278Z,1.60
2022-09-05T10:42:22.160Z,1.23
2022-09-05T10:43:31.530Z,1.17
2022-09-05T10:44:52.791Z,1.40
2022-09-05T10:45:57.676Z,1.38
2022-09-05T10:47:08.280Z,1.25
2022-09-05T10:48:37.231Z,1.50
2022-09-05T10:49:50.477Z,1.30
2022-09-05T10:51:27.914Z,1.42
2022-09-05T10:52:47.383Z,1.27
2022-09-05T10:54:13.755Z,1.45
2022-09-05T10:55:47.689Z,1.30
2022-09-05T10:57:48.303Z,1.40
2022-09-05T11:00:34.106Z,1.23
2022-09-05T11:02:26.378Z,1.27
2022-09-05T11:02:34.643Z,1.45
2022-09-05T11:04:12.529Z,1.08
2022-09-05T11:05:25.645Z,1.20
2022-09-05T11:07:12.899Z,1.40
2022-09-05T11:08:32.080Z,1.05
2022-09-05T11:10:06.441Z,1.27
2022-09-05T11:11:33.960Z,1.23
2022-09-05T11:13:04.632Z,0.98
2022-09-05T11:14:26.426Z,1.20
2022-09-05T11:16:36.986Z,1.40
2022-09-05T11:18:10.190Z,1.20
2022-09-05T11:19:45.232Z,1.50
2022-09-05T11:21:26.974Z,0.80
2022-09-05T11:22:38.620Z,1.45
2022-09-05T11:23:58.764Z,1.10
2022-09-05T11:25:09.691Z,1.25
2022-09-05T11:27:23.720Z,1.13
2022-09-05T11:28:57.485Z,0.90
2022-09-05T11:30:07.772Z,1.00
2022-09-05T11:31:18.140Z,1.08
2022-09-05T11:39:51.719Z,1.08
2022-09-05T11:39:57.506Z,1.25
2022-09-05T11:39:57.727Z,1.30
2022-09-05T11:40:00.057Z,1.30
2022-09-05T11:40:31.384Z,1.20
2022-09-05T11:41:38.745Z,1.10
2022-09-05T11:43:22.076Z,1.15
2022-09-05T11:44:53.382Z,1.10
2022-09-05T11:46:13.653Z,1.08
2022-09-05T11:48:22.545Z,1.30
2022-09-05T11:49:54.324Z,1.05
2022-09-05T11:51:36.134Z,1.30
2022-09-05T11:53:00.973Z,1.23
2022-09-05T11:54:34.963Z,1.35
2022-09-05T11:55:52.038Z,1.38
2022-09-05T11:57:33.818Z,1.38
2022-09-05T11:58:46.725Z,1.30
2022-09-05T12:00:31.637Z,1.13
2022-09-05T12:04:24.144Z,1.10
2022-09-05T12:05:58.956Z,1.40
2022-09-05T12:07:33.662Z,1.45
2022-09-05T12:10:43.380Z,1.15
2022-09-05T12:12:32.752Z,1.27
2022-09-05T12:14:25.616Z,1.48
2022-09-05T12:15:34.041Z,0.90
2022-09-05T12:16:45.279Z,1.23
2022-09-05T12:18:33.865Z,0.93
2022-09-05T12:20:03.606Z,1.20
2022-09-05T12:21:28.216Z,1.45
2022-09-05T12:23:36.871Z,1.10
2022-09-05T12:26:41.632Z,1.20
2022-09-05T12:27:44.371Z,1.23
2022-09-05T12:29:26.070Z,1.25
2022-09-05T12:30:09.792Z,1.38
2022-09-05T12:33:33.936Z,1.15
2022-09-05T12:36:05.776Z,1.90
2022-09-05T12:36:11.893Z,1.40
2022-09-05T12:40:15.854Z,1.20
2022-09-05T12:40:44.684Z,1.45
2022-09-05T12:40:53.929Z,1.92
2022-09-05T12:41:35.370Z,1.23
2022-09-05T12:41:40.656Z,1.38
2022-09-05T12:41:41.044Z,1.38
2022-09-05T12:44:00.736Z,1.40
2022-09-05T12:45:09.043Z,1.33
2022-09-05T12:46:33.239Z,0.98
2022-09-05T12:48:26.293Z,1.05
2022-09-05T12:50:16.927Z,1.20
2022-09-05T12:51:46.945Z,1.17
2022-09-05T12:53:10.273Z,1.30
2022-09-05T12:54:40.421Z,1.00
2022-09-05T12:56:55.549Z,1.13
2022-09-05T12:58:59.479Z,1.02
2022-09-05T13:03:07.543Z,1.15
2022-09-05T13:03:12.526Z,1.08
2022-09-05T13:03:13.145Z,1.00
2022-09-05T13:03:31.628Z,1.13
2022-09-05T13:04:51.294Z,1.05
2022-09-05T13:06:25.590Z,1.15
2022-09-05T13:07:40.921Z,1.20
2022-09-05T13:08:59.639Z,1.17
2022-09-05T13:14:46.259Z,1.10
2022-09-05T13:14:52.377Z,1.02
2022-09-05T13:14:52.983Z,1.08
2022-09-05T13:15:39.920Z,1.20
2022-09-05T13:16:48.052Z,0.98
2022-09-05T13:18:04.198Z,1.10
2022-09-05T13:19:18.037Z,1.17
2022-09-05T13:20:58.981Z,1.30
2022-09-05T13:22:04.109Z,1.20
2022-09-05T13:23:23.421Z,1.10
2022-09-05T13:24:41.300Z,1.15
2022-09-05T13:25:56.254Z,1.20
2022-09-05T13:27:13.572Z,1.10
2022-09-05T13:28:16.135Z,1.33
2022-09-05T13:29:35.123Z,1.42
2022-09-05T13:37:54.660Z,1.35
2022-09-05T13:38:01.344Z,1.02
2022-09-05T13:38:06.159Z,1.10
2022-09-05T13:38:10.024Z,1.10
2022-09-05T13:38:14.914Z,0.95
2022-09-05T13:39:12.772Z,1.10
2022-09-05T13:40:58.156Z,1.23
2022-09-05T13:42:03.537Z,0.95
2022-09-05T13:43:13.848Z,1.30
2022-09-05T13:44:27.140Z,1.05
2022-09-05T13:45:33.162Z,1.23
2022-09-05T13:46:57.906Z,1.10
2022-09-05T13:49:23.865Z,1.27
2022-09-05T13:50:26.642Z,1.02
2022-09-05T13:51:51.048Z,0.90
2022-09-05T13:53:17.320Z,1.30
2022-09-05T13:54:38.852Z,1.30
2022-09-05T13:55:54.054Z,1.58
2022-09-05T13:57:46.530Z,2.33
2022-09-05T13:59:11.226Z,2.70
2022-09-05T14:00:26.732Z,1.15
2022-09-05T14:01:32.059Z,1.33
2022-09-05T14:11:07.785Z,1.20
2022-09-05T14:12:29.372Z,1.20
2022-09-05T14:13:44.634Z,1.25
2022-09-05T14:15:11.620Z,1.20
2022-09-05T14:16:28.426Z,1.35
2022-09-05T14:18:20.347Z,1.20
2022-09-05T14:19:43.708Z,1.25
2022-09-05T14:21:18.875Z,1.25
2022-09-05T14:22:53.855Z,1.27
2022-09-05T14:24:37.563Z,1.10
2022-09-05T14:25:44.564Z,1.02
2022-09-05T14:27:13.297Z,1.13
2022-09-05T14:28:30.933Z,1.10
2022-09-05T14:29:48.916Z,1.23
2022-09-05T14:33:34.126Z,0.98
2022-09-05T14:37:40.209Z,1.20
2022-09-05T14:37:49.608Z,1.10
2022-09-05T14:37:55.237Z,1.23
2022-09-05T14:38:16.164Z,1.30
2022-09-05T14:40:29.432Z,1.40
2022-09-05T14:42:25.495Z,1.13
2022-09-05T14:43:32.957Z,0.98
2022-09-05T14:44:37.840Z,1.17
2022-09-05T14:46:21.654Z,1.20
2022-09-05T14:47:55.285Z,1.40
2022-09-05T14:49:44.916Z,1.13
2022-09-05T14:51:25.293Z,1.50
2022-09-05T14:52:31.351Z,1.40
2022-09-05T14:55:19.461Z,1.27
2022-09-05T14:57:45.159Z,1.20
2022-09-05T15:02:46.127Z,1.00
2022-09-05T15:02:49.361Z,1.33
2022-09-05T15:02:49.757Z,1.20
2022-09-05T15:03:02.460Z,0.98
2022-09-05T15:05:28.807Z,1.10
2022-09-05T15:06:33.301Z,1.30
2022-09-05T15:07:43.357Z,1.35
2022-09-05T15:11:25.933Z,1.02
2022-09-05T15:12:18.809Z,1.30
2022-09-05T15:12:22.947Z,1.50
2022-09-05T15:13:18.161Z,1.10
2022-09-05T15:14:23.921Z,0.98
2022-09-05T15:15:59.078Z,1.30
2022-09-05T15:17:06.059Z,1.23
2022-09-05T15:18:27.738Z,1.15
2022-09-05T15:20:08.434Z,1.33
2022-09-05T15:21:34.685Z,1.30
2022-09-05T15:22:43.519Z,1.10
2022-09-05T15:24:24.798Z,1.10
2022-09-05T15:25:29.811Z,1.20
2022-09-05T15:26:32.867Z,1.30
2022-09-05T15:27:35.111Z,1.20
2022-09-05T15:28:42.731Z,1.40
2022-09-05T15:29:55.672Z,2.63
2022-09-05T15:31:10.428Z,1.90
2022-09-05T15:32:22.520Z,1.70
2022-09-05T15:33:28.912Z,1.50
2022-09-05T15:34:33.217Z,1.67
2022-09-05T15:35:42.351Z,1.20
2022-09-05T15:36:44.555Z,1.38
2022-09-05T15:37:47.919Z,1.30
2022-09-05T15:38:56.141Z,1.38
2022-09-05T15:40:22.415Z,1.30
2022-09-05T15:41:29.155Z,1.70
2022-09-05T15:42:48.236Z,1.30
2022-09-05T15:44:09.898Z,1.30
2022-09-05T15:45:22.633Z,1.35
2022-09-05T15:46:59.187Z,1.50
2022-09-05T15:48:15.649Z,1.60
2022-09-05T15:49:35.699Z,1.33
2022-09-05T15:50:52.643Z,1.35
2022-09-05T15:52:00.771Z,1.50
2022-09-05T15:53:02.767Z,1.42
2022-09-05T15:54:05.176Z,1.50
2022-09-05T15:55:20.009Z,1.27
2022-09-05T15:56:25.069Z,2.17
2022-09-05T15:57:45.902Z,1.80
2022-09-05T15:58:54.886Z,1.52
2022-09-05T16:00:04.309Z,1.55
2022-09-05T16:01:46.411Z,1.60
2022-09-05T16:02:47.078Z,1.30
2022-09-05T16:08:10.630Z,1.30
2022-09-05T16:10:33.452Z,1.23
2022-09-05T16:10:37.383Z,1.30
2022-09-05T16:10:39.373Z,1.42
2022-09-05T16:10:57.806Z,1.42
2022-09-05T16:12:07.352Z,1.27
2022-09-05T16:13:00.349Z,1.60
2022-09-05T16:14:36.492Z,1.27
2022-09-05T16:19:11.007Z,1.58
2022-09-05T16:23:13.153Z,1.38
2022-09-05T16:23:14.854Z,1.30
2022-09-05T16:23:23.411Z,1.15
2022-09-05T16:23:25.663Z,1.10
2022-09-05T16:23:41.541Z,1.35
2022-09-05T16:24:58.995Z,1.10
2022-09-05T16:26:12.271Z,1.50
2022-09-05T16:27:50.693Z,1.33
2022-09-05T16:29:00.066Z,1.40
2022-09-05T16:30:04.544Z,1.33
2022-09-05T16:31:25.881Z,1.40
2022-09-05T16:32:33.708Z,1.33
2022-09-05T16:33:35.615Z,1.10
2022-09-05T16:34:57.476Z,0.93
2022-09-05T16:36:29.340Z,1.10
2022-09-05T16:37:57.047Z,1.17
2022-09-05T16:39:10.739Z,1.30
2022-09-05T16:40:25.919Z,1.55
2022-09-05T16:41:47.767Z,1.40
2022-09-05T16:43:02.185Z,1.30
2022-09-05T16:44:28.661Z,1.30
2022-09-05T16:46:11.069Z,1.58
2022-09-05T16:47:35.106Z,1.20
2022-09-05T16:48:55.126Z,1.10
2022-09-05T16:50:34.294Z,1.13
2022-09-05T16:51:50.165Z,1.70
2022-09-05T16:52:53.581Z,1.52
2022-09-05T16:54:21.692Z,1.80
2022-09-05T16:55:41.069Z,1.50
2022-09-05T16:56:55.894Z,1.15
2022-09-05T16:58:15.960Z,1.63
2022-09-05T16:59:28.549Z,1.27
2022-09-05T17:01:11.114Z,1.50
2022-09-05T17:02:28.752Z,1.58
2022-09-05T17:04:15.875Z,1.27
2022-09-05T17:05:41.420Z,1.13
2022-09-05T17:07:05.098Z,1.38
2022-09-05T17:08:29.382Z,1.00
2022-09-05T17:09:37.135Z,1.40
2022-09-05T17:11:12.105Z,1.30
2022-09-05T17:12:22.062Z,1.13
2022-09-05T17:13:55.320Z,0.93
2022-09-05T17:15:08.283Z,1.30
2022-09-05T17:16:43.849Z,1.40
2022-09-05T17:18:20.698Z,1.35
2022-09-05T17:19:25.085Z,1.48
2022-09-05T17:20:37.312Z,1.50
2022-09-05T17:24:41.700Z,1.40
2022-09-05T17:29:15.469Z,1.50
2022-09-05T17:29:23.803Z,1.45
2022-09-05T17:29:28.326Z,1.55
2022-09-05T17:29:34.134Z,1.42
2022-09-05T17:31:54.871Z,1.10
2022-09-05T17:32:58.341Z,1.40
2022-09-05T17:34:20.867Z,1.30
2022-09-05T17:35:42.285Z,1.17
2022-09-05T17:37:11.786Z,1.35
2022-09-05T17:38:40.214Z,1.23
2022-09-05T17:39:55.479Z,1.25
2022-09-05T17:41:25.223Z,1.20
2022-09-05T17:42:48.885Z,1.40
2022-09-05T17:44:07.415Z,1.30
2022-09-05T17:45:32.811Z,1.52
2022-09-05T17:46:45.996Z,1.30
2022-09-05T17:47:55.550Z,1.40
2022-09-05T17:49:19.564Z,1.48
2022-09-05T17:50:25.142Z,1.25
2022-09-05T17:51:38.103Z,1.30
2022-09-05T17:53:26.819Z,1.13
2022-09-05T17:54:33.561Z,1.20
2022-09-05T17:55:42.420Z,1.40
2022-09-05T17:56:46.080Z,1.55
2022-09-05T17:57:48.877Z,1.50
2022-09-05T17:59:21.217Z,1.10
2022-09-05T18:00:45.544Z,1.30
2022-09-05T18:02:02.438Z,1.27
2022-09-05T18:03:04.376Z,1.30
2022-09-05T18:04:16.231Z,1.38
2022-09-05T18:05:56.722Z,1.50
2022-09-05T18:07:00.386Z,1.40
2022-09-05T18:08:02.658Z,1.50
2022-09-05T18:09:30.419Z,1.50
2022-09-05T18:11:02.592Z,1.52
2022-09-05T18:13:13.025Z,1.40
2022-09-05T18:14:10.771Z,1.50
2022-09-05T18:15:31.791Z,1.27
2022-09-05T18:17:35.242Z,1.63
2022-09-05T18:19:27.745Z,1.42
2022-09-05T18:20:10.885Z,1.33
2022-09-05T18:21:22.014Z,1.40
2022-09-05T18:22:35.915Z,1.30
2022-09-05T18:23:54.375Z,1.30
2022-09-05T18:25:28.688Z,1.58
2022-09-05T18:26:44.699Z,1.55
2022-09-05T18:28:04.867Z,2.00
2022-09-05T18:29:58.585Z,1.80
2022-09-05T18:31:41.973Z,1.35
2022-09-05T18:33:30.566Z,1.45
2022-09-05T18:34:21.089Z,1.48
2022-09-05T18:35:36.870Z,1.75
2022-09-05T18:36:43.451Z,1.50
2022-09-05T18:38:05.328Z,1.48
2022-09-05T18:39:38.155Z,1.70
2022-09-05T18:41:06.173Z,1.90
2022-09-05T18:42:26.630Z,1.70
2022-09-05T18:44:12.405Z,1.67
2022-09-05T18:45:16.219Z,1.75
2022-09-05T18:46:32.830Z,1.40
2022-09-05T18:48:00.064Z,1.52
2022-09-05T18:50:24.101Z,1.48
2022-09-05T18:51:15.512Z,1.30
2022-09-05T18:52:27.748Z,1.33
2022-09-05T18:53:34.632Z,1.73
2022-09-05T18:54:41.062Z,1.50
2022-09-05T18:56:37.015Z,1.42
2022-09-05T18:57:57.854Z,1.60
2022-09-05T18:59:36.818Z,1.38
2022-09-05T19:00:45.035Z,1.55
2022-09-05T19:02:26.705Z,1.58
2022-09-05T19:03:36.775Z,1.48
2022-09-05T19:04:53.287Z,1.55
2022-09-05T19:06:34.723Z,1.38
2022-09-05T19:07:47.862Z,1.30
2022-09-05T19:09:03.251Z,1.60
2022-09-05T19:10:35.633Z,1.40
2022-09-05T19:11:53.911Z,1.50
2022-09-05T19:13:23.899Z,1.58
2022-09-05T19:14:50.364Z,1.42
2022-09-05T19:16:42.224Z,1.60
2022-09-05T19:17:47.489Z,1.70
2022-09-05T19:19:18.375Z,1.60
2022-09-05T19:20:32.869Z,1.60
2022-09-05T19:21:56.140Z,1.58
2022-09-05T19:23:13.800Z,1.63
2022-09-05T19:24:19.420Z,1.80
2022-09-05T19:25:37.194Z,1.70
2022-09-05T19:26:40.154Z,1.38
2022-09-05T19:30:53.729Z,1.70
2022-09-05T19:36:47.359Z,1.48
2022-09-05T19:36:53.005Z,1.50
2022-09-05T19:36:59.087Z,1.83
2022-09-05T19:37:07.577Z,1.60
2022-09-05T19:37:22.202Z,1.65
2022-09-05T19:37:22.602Z,1.63
2022-09-05T19:38:17.747Z,1.90
2022-09-05T19:42:42.068Z,2.00
2022-09-05T19:47:29.405Z,1.80
2022-09-05T19:47:30.965Z,1.83
2022-09-05T19:47:43.858Z,1.90
2022-09-05T19:47:49.001Z,1.63
2022-09-05T19:47:55.936Z,1.90
2022-09-05T19:48:03.985Z,1.60
2022-09-05T19:49:13.751Z,1.83
2022-09-05T19:50:26.682Z,1.80
2022-09-05T19:51:28.823Z,2.10
2022-09-05T19:52:31.343Z,2.00
2022-09-05T19:54:01.289Z,2.00
2022-09-05T19:55:27.437Z,2.00
2022-09-05T19:56:46.505Z,2.17
2022-09-05T19:58:14.886Z,2.50
2022-09-05T19:59:34.976Z,2.20
2022-09-05T20:00:40.450Z,2.20
2022-09-05T20:01:47.647Z,2.00